Time;durP1;ratioP1;P1;durP2;ratioP2;P2;SDS_P1;SDS_P2;PMS_P1;PMS_P2;Temp;Humidity;BMP_temperature;BMP_pressure;BME280_temperature;BME280_humidity;BME280_pressure;Samples;Min_cycle;Max_cycle;Signal;HPM_P1;HPM_P2
2022/09/08 00:00:38;;;;;;;;;;;;;;;8.72;78.44;99625.94;4998432;28;19969;-78
2022/09/08 00:03:08;;;;;;;;;;;;;;;8.72;77.92;99616.38;4985400;28;20023;-80
2022/09/08 00:05:44;;;;;;;;;;;;;;;8.73;78.44;99620.75;5011011;28;19930;-79
2022/09/08 00:08:11;;;;;;;;;;;;;;;8.74;78.05;99621.59;5009371;28;19926;-79
2022/09/08 00:10:39;;;;;;;;;;;;;;;8.71;78.35;99622.47;5008215;28;19952;-83
2022/09/08 00:13:07;;;;;;;;;;;;;;;8.72;78.20;99625.94;4998078;28;19932;-81
2022/09/08 00:15:35;;;;;;;;;;;;;;;8.74;78.36;99622.47;4980830;28;19925;-80
2022/09/08 00:18:02;;;;;;;;;;;;;;;8.76;78.46;99625.09;4981932;28;19926;-78
2022/09/08 00:20:29;;;;;;;;;;;;;;;8.78;78.40;99624.25;4984133;28;20024;-79
2022/09/08 00:22:56;;;;;;;;;;;;;;;8.80;78.58;99625.13;4976677;28;20347;-83
2022/09/08 00:25:23;;;;;;;;;;;;;;;8.82;77.96;99628.59;4976921;28;19933;-81
2022/09/08 00:27:49;;;;;;;;;;;;;;;8.82;78.09;99622.53;4976680;28;20338;-83
2022/09/08 00:30:16;;;;;;;;;;;;;;;8.80;78.56;99630.31;4977118;28;19973;-79
2022/09/08 00:32:43;;;;;;;;;;;;;;;8.79;78.56;99630.31;4977078;28;19958;-80
2022/09/08 00:35:14;;;;;;;;;;;;;;;8.78;78.47;99636.41;4975446;28;20398;-78
2022/09/08 00:37:47;;;;;;;;;;;;;;;8.79;78.65;99630.31;4976788;28;20014;-80
2022/09/08 00:40:14;;;;;;;;;;;;;;;8.79;78.55;99633.78;4976603;28;20309;-81
2022/09/08 00:42:42;;;;;;;;;;;;;;;8.80;78.27;99629.47;4975286;28;20346;-80
2022/09/08 00:45:10;;;;;;;;;;;;;;;8.79;78.68;99632.91;4976566;28;19926;-79
2022/09/08 00:47:40;;;;;;;;;;;;;;;8.75;79.12;99637.22;4976395;28;20021;-79
2022/09/08 00:50:23;;;;;;;;;;;;;;;8.78;78.88;99634.66;4977043;28;19955;-79
2022/09/08 00:53:00;;;;;;;;;;;;;;;8.80;78.41;99632.94;4964661;28;20435;-80
2022/09/08 00:55:28;;;;;;;;;;;;;;;8.85;78.92;99637.31;4995972;28;20387;-81
2022/09/08 00:57:55;;;;;;;;;;;;;;;8.88;78.41;99632.09;4994520;28;19968;-81
2022/09/08 01:00:22;;;;;;;;;;;;;;;8.86;78.33;99639.91;4995354;28;20345;-81
2022/09/08 01:02:49;;;;;;;;;;;;;;;8.85;78.48;99634.69;4995412;28;19971;-80
2022/09/08 01:05:20;;;;;;;;;;;;;;;8.83;78.89;99637.28;4978250;28;19980;-77
2022/09/08 01:13:28;;;;;;;;;;;;;;;8.87;78.44;99644.25;4995228;28;20016;-78
2022/09/08 01:15:55;;;;;;;;;;;;;;;8.89;78.50;99642.53;4995442;28;19925;-79
2022/09/08 01:18:22;;;;;;;;;;;;;;;8.95;78.61;99641.72;4977830;28;20432;-78
2022/09/08 01:20:54;;;;;;;;;;;;;;;8.99;78.67;99640.84;4977441;28;20075;-79
2022/09/08 01:23:23;;;;;;;;;;;;;;;8.99;78.30;99640.84;4995170;28;19933;-79
2022/09/08 01:25:54;;;;;;;;;;;;;;;8.95;78.49;99646.94;4994900;28;19976;-79
2022/09/08 01:28:47;;;;;;;;;;;;;;;8.92;78.45;99644.28;4995176;28;19968;-79
2022/09/08 01:31:14;;;;;;;;;;;;;;;8.87;78.88;99646.00;4990880;28;20298;-79
2022/09/08 01:33:42;;;;;;;;;;;;;;;8.86;78.26;99655.53;4994778;28;19929;-80
2022/09/08 01:36:09;;;;;;;;;;;;;;;8.84;78.24;99653.78;4995338;28;19988;-79
2022/09/08 01:38:36;;;;;;;;;;;;;;;8.84;78.87;99654.69;4994729;28;19930;-79
2022/09/08 01:41:04;;;;;;;;;;;;;;;8.84;78.51;99654.69;4994843;28;19925;-79
2022/09/08 01:43:30;;;;;;;;;;;;;;;8.81;78.41;99652.91;4994620;28;20380;-79
2022/09/08 01:45:57;;;;;;;;;;;;;;;8.78;78.95;99655.50;4994031;28;20409;-78
2022/09/08 01:48:25;;;;;;;;;;;;;;;8.79;78.84;99653.75;4977422;28;19925;-79
2022/09/08 01:50:56;;;;;;;;;;;;;;;8.81;78.74;99658.09;4993091;28;19925;-78
2022/09/08 01:53:23;;;;;;;;;;;;;;;8.83;78.82;99663.34;4993606;28;19925;-79
2022/09/08 01:55:50;;;;;;;;;;;;;;;8.83;78.97;99660.72;4994221;28;19973;-78
2022/09/08 01:58:17;;;;;;;;;;;;;;;8.85;78.65;99658.16;4994491;28;19932;-78
2022/09/08 02:00:43;;;;;;;;;;;;;;;8.88;78.74;99648.59;4993950;28;19925;-78
2022/09/08 02:03:11;;;;;;;;;;;;;;;8.88;78.67;99661.63;4977050;28;20386;-77
2022/09/08 02:05:39;;;;;;;;;;;;;;;8.87;78.66;99667.72;4992628;28;20363;-78
2022/09/08 02:08:06;;;;;;;;;;;;;;;8.87;78.45;99662.50;4994147;28;19930;-78
2022/09/08 02:10:33;;;;;;;;;;;;;;;8.90;78.78;99672.06;4994053;28;19926;-78
2022/09/08 02:13:01;;;;;;;;;;;;;;;8.91;78.97;99664.25;4987033;28;19926;-79
2022/09/08 02:15:28;;;;;;;;;;;;;;;8.90;78.43;99670.31;4975303;28;19926;-78
2022/09/08 02:17:56;;;;;;;;;;;;;;;8.89;78.70;99673.81;4980426;28;19933;-77
2022/09/08 02:20:23;;;;;;;;;;;;;;;8.89;78.64;99670.34;4994026;28;19969;-79
2022/09/08 02:22:51;;;;;;;;;;;;;;;8.86;78.53;99670.28;4976472;28;20019;-77
2022/09/08 02:25:19;;;;;;;;;;;;;;;8.81;78.53;99673.72;4981782;28;19932;-78
2022/09/08 02:27:46;;;;;;;;;;;;;;;8.78;78.76;99680.66;4974472;28;20088;-78
2022/09/08 02:30:13;;;;;;;;;;;;;;;8.78;78.89;99683.28;4974553;28;20398;-80
2022/09/08 02:32:40;;;;;;;;;;;;;;;8.76;79.20;99675.44;4973718;28;20302;-79
2022/09/08 02:35:07;;;;;;;;;;;;;;;8.71;79.38;99679.75;4984030;28;19979;-79
2022/09/08 02:37:34;;;;;;;;;;;;;;;8.72;79.09;99680.63;4992749;28;19933;-78
2022/09/08 02:40:02;;;;;;;;;;;;;;;8.71;79.24;99682.34;4987623;28;19925;-80
2022/09/08 02:42:29;;;;;;;;;;;;;;;8.70;78.69;99684.94;4972898;28;20295;-80
2022/09/08 02:44:57;;;;;;;;;;;;;;;8.71;79.10;99684.06;4957058;28;19992;-79
2022/09/08 02:47:24;;;;;;;;;;;;;;;8.68;78.76;99687.53;4974459;28;20382;-80
2022/09/08 02:49:50;;;;;;;;;;;;;;;8.67;78.93;99688.41;4974020;28;19969;-80
2022/09/08 02:52:17;;;;;;;;;;;;;;;8.68;79.08;99691.88;4981026;28;20287;-79
2022/09/08 02:54:44;;;;;;;;;;;;;;;8.69;78.75;99688.38;4993753;28;19989;-80
2022/09/08 02:57:11;;;;;;;;;;;;;;;8.70;78.53;99696.22;4978489;28;19932;-80
2022/09/08 02:59:38;;;;;;;;;;;;;;;8.73;78.91;99692.75;4996604;28;19932;-80
2022/09/08 03:02:05;;;;;;;;;;;;;;;8.73;78.92;99693.66;4997714;28;19932;-80
2022/09/08 03:04:31;;;;;;;;;;;;;;;8.75;79.03;99696.25;4997534;28;20004;-80
2022/09/08 03:06:58;;;;;;;;;;;;;;;8.74;78.44;99699.75;4980651;28;19948;-79
2022/09/08 03:09:25;;;;;;;;;;;;;;;8.72;78.88;99698.84;5005545;28;19953;-80
2022/09/08 03:11:52;;;;;;;;;;;;;;;8.71;79.16;99702.28;5005853;28;19972;-78
2022/09/08 03:14:19;;;;;;;;;;;;;;;8.69;78.87;99704.00;5011103;28;19932;-80
2022/09/08 03:16:46;;;;;;;;;;;;;;;8.71;78.54;99704.91;5011478;28;19954;-80
2022/09/08 03:19:13;;;;;;;;;;;;;;;8.69;78.31;99710.13;5015221;28;20349;-80
2022/09/08 03:21:40;;;;;;;;;;;;;;;8.70;78.31;99717.06;5015100;28;19925;-79
2022/09/08 03:24:07;;;;;;;;;;;;;;;8.68;78.78;99716.16;5009918;28;20341;-78
2022/09/08 03:26:34;;;;;;;;;;;;;;;8.67;78.94;99717.03;5013090;28;19955;-78
2022/09/08 03:29:01;;;;;;;;;;;;;;;8.68;78.76;99720.50;5012203;28;19933;-78
2022/09/08 03:31:28;;;;;;;;;;;;;;;8.69;78.81;99723.13;4981612;28;19942;-79
2022/09/08 03:33:55;;;;;;;;;;;;;;;8.71;78.31;99724.03;4960775;28;19933;-79
2022/09/08 03:36:22;;;;;;;;;;;;;;;8.75;78.56;99730.97;4977521;28;20405;-79
2022/09/08 03:38:49;;;;;;;;;;;;;;;8.79;78.20;99732.75;4977762;28;19926;-79
2022/09/08 03:41:16;;;;;;;;;;;;;;;8.85;77.72;99736.28;4977400;28;20374;-79
2022/09/08 03:43:44;;;;;;;;;;;;;;;8.83;78.23;99736.25;4977903;28;19965;-78
2022/09/08 03:46:11;;;;;;;;;;;;;;;8.84;78.17;99740.63;4978261;28;20021;-78
2022/09/08 03:48:38;;;;;;;;;;;;;;;8.87;77.80;99735.44;4976294;28;20357;-79
2022/09/08 03:51:12;;;;;;;;;;;;;;;8.92;77.81;99745.88;4977793;28;19949;-76
2022/09/08 03:53:39;;;;;;;;;;;;;;;8.95;77.33;99743.31;4977667;28;19933;-78
2022/09/08 03:56:08;;;;;;;;;;;;;;;8.96;77.17;99742.44;4983125;28;19937;-80
2022/09/08 03:58:36;;;;;;;;;;;;;;;8.96;77.96;99745.06;4967627;28;19926;-79
2022/09/08 04:01:07;;;;;;;;;;;;;;;8.93;77.73;99750.25;4986061;28;19941;-78
2022/09/08 04:03:34;;;;;;;;;;;;;;;8.86;77.45;99746.69;4986440;28;20032;-79
2022/09/08 04:06:01;;;;;;;;;;;;;;;8.87;77.64;99750.19;4986448;28;19930;-76
2022/09/08 04:08:28;;;;;;;;;;;;;;;8.91;77.69;99757.19;4984538;28;19981;-78
2022/09/08 04:10:54;;;;;;;;;;;;;;;9.02;77.33;99755.53;4984215;28;19926;-79
2022/09/08 04:13:21;;;;;;;;;;;;;;;9.15;77.19;99759.97;4984347;28;19925;-76
2022/09/08 04:15:48;;;;;;;;;;;;;;;9.22;76.46;99759.13;4985091;28;20461;-78
2022/09/08 04:18:15;;;;;;;;;;;;;;;9.27;76.78;99760.91;4986100;28;19933;-77
2022/09/08 04:20:42;;;;;;;;;;;;;;;9.34;76.61;99760.97;4967172;28;20029;-81
2022/09/08 04:23:09;;;;;;;;;;;;;;;9.38;76.72;99764.50;4984408;28;19926;-80
2022/09/08 04:25:36;;;;;;;;;;;;;;;9.46;76.21;99767.13;4984009;28;20391;-78
2022/09/08 04:28:03;;;;;;;;;;;;;;;9.58;76.17;99765.47;4983733;28;19949;-79
2022/09/08 04:30:30;;;;;;;;;;;;;;;9.60;75.53;99758.53;4981926;28;19933;-79
2022/09/08 04:32:57;;;;;;;;;;;;;;;9.72;75.03;99760.34;4985224;28;20053;-79
2022/09/08 04:35:24;;;;;;;;;;;;;;;9.90;75.03;99759.56;4986035;28;19952;-78
2022/09/08 04:37:50;;;;;;;;;;;;;;;10.01;74.33;99763.06;4982375;28;20350;-78
2022/09/08 04:40:18;;;;;;;;;;;;;;;10.14;74.06;99755.28;4985887;28;20023;-81
2022/09/08 04:42:45;;;;;;;;;;;;;;;10.26;73.89;99763.16;4970708;28;19995;-78
2022/09/08 04:45:13;;;;;;;;;;;;;;;10.39;73.38;99764.09;4983312;28;19926;-82
2022/09/08 04:47:40;;;;;;;;;;;;;;;10.41;72.79;99771.06;4989849;28;19953;-82
2022/09/08 04:50:08;;;;;;;;;;;;;;;10.37;72.59;99766.72;4977282;28;19926;-82
2022/09/08 04:52:35;;;;;;;;;;;;;;;10.36;72.59;99769.31;4983403;28;20020;-82
2022/09/08 04:55:02;;;;;;;;;;;;;;;10.34;72.33;99771.91;4981374;28;20345;-81
2022/09/08 04:57:29;;;;;;;;;;;;;;;10.45;72.56;99780.66;4984820;28;19925;-79
2022/09/08 04:59:57;;;;;;;;;;;;;;;10.53;71.97;99775.44;4978871;28;19964;-79
2022/09/08 05:02:24;;;;;;;;;;;;;;;10.48;71.83;99774.56;4982405;28;20025;-81
2022/09/08 05:04:51;;;;;;;;;;;;;;;10.48;71.29;99778.94;4970407;28;19926;-81
2022/09/08 05:07:21;;;;;;;;;;;;;;;10.64;71.95;99778.06;4982499;28;19925;-80
2022/09/08 05:09:48;;;;;;;;;;;;;;;10.69;71.01;99798.97;4992548;28;19925;-78
2022/09/08 05:12:14;;;;;;;;;;;;;;;10.84;71.08;99791.16;4991563;28;20029;-78
2022/09/08 05:14:42;;;;;;;;;;;;;;;11.08;70.04;99792.94;4990724;28;20412;-78
2022/09/08 05:17:08;;;;;;;;;;;;;;;10.92;70.24;99788.56;4978355;28;19926;-79
2022/09/08 05:19:35;;;;;;;;;;;;;;;10.98;70.83;99796.41;4985815;28;19937;-79
2022/09/08 05:22:02;;;;;;;;;;;;;;;11.42;69.86;99785.94;4983105;28;19992;-79
2022/09/08 05:24:29;;;;;;;;;;;;;;;11.59;68.70;99798.13;4982077;28;19926;-80
2022/09/08 05:26:56;;;;;;;;;;;;;;;11.97;68.46;99787.59;4965576;28;20417;-81
2022/09/08 05:29:23;;;;;;;;;;;;;;;12.04;66.10;99785.81;4966235;28;19980;-78
2022/09/08 05:31:50;;;;;;;;;;;;;;;11.68;66.77;99785.03;4983308;28;19925;-80
2022/09/08 05:34:17;;;;;;;;;;;;;;;11.78;67.44;99794.56;4984614;28;19925;-78
2022/09/08 05:36:44;;;;;;;;;;;;;;;12.01;66.34;99786.69;4981775;28;19926;-76
2022/09/08 05:39:16;;;;;;;;;;;;;;;12.11;65.34;99792.78;4982431;28;19988;-77
2022/09/08 05:41:43;;;;;;;;;;;;;;;11.91;65.17;99797.19;4983060;28;19929;-80
2022/09/08 05:44:13;;;;;;;;;;;;;;;11.54;65.57;99795.50;4983799;28;19930;-79
2022/09/08 05:46:40;;;;;;;;;;;;;;;11.46;65.83;99802.50;4984294;28;19941;-77
2022/09/08 05:49:07;;;;;;;;;;;;;;;11.59;65.91;99798.13;4983165;28;20024;-77
2022/09/08 05:51:34;;;;;;;;;;;;;;;11.61;65.85;99805.06;4982551;28;20097;-77
2022/09/08 05:54:01;;;;;;;;;;;;;;;11.71;65.73;99810.31;4982430;28;19926;-78
2022/09/08 05:56:28;;;;;;;;;;;;;;;11.76;64.86;99800.69;4982714;28;20415;-76
2022/09/08 05:58:57;;;;;;;;;;;;;;;11.79;64.98;99813.78;4966798;28;19968;-78
2022/09/08 06:01:31;;;;;;;;;;;;;;;11.86;63.66;99807.66;4967188;28;19949;-78
2022/09/08 06:03:59;;;;;;;;;;;;;;;11.91;64.02;99807.69;4974576;28;19925;-77
2022/09/08 06:06:32;;;;;;;;;;;;;;;12.07;62.96;99802.38;4957846;28;19925;-78
2022/09/08 06:09:00;;;;;;;;;;;;;;;12.01;62.45;99807.63;4983492;28;19940;-77
2022/09/08 06:11:28;;;;;;;;;;;;;;;11.80;62.92;99816.38;4993532;28;20345;-79
2022/09/08 06:13:55;;;;;;;;;;;;;;;11.78;62.16;99817.28;4981490;28;19926;-77
2022/09/08 06:16:22;;;;;;;;;;;;;;;11.61;62.95;99798.97;4981592;28;19932;-78
2022/09/08 06:18:50;;;;;;;;;;;;;;;11.70;62.84;99814.66;4983308;28;19933;-77
2022/09/08 06:21:17;;;;;;;;;;;;;;;11.56;62.83;99819.94;4981690;28;20025;-78
2022/09/08 06:23:47;;;;;;;;;;;;;;;11.31;63.32;99826.03;4983276;28;19972;-77
2022/09/08 06:26:33;;;;;;;;;;;;;;;11.25;64.24;99827.81;4981443;28;19926;-78
2022/09/08 06:29:15;;;;;;;;;;;;;;;11.36;63.68;99826.94;4982217;28;20052;-80
2022/09/08 06:31:48;;;;;;;;;;;;;;;11.25;63.53;99830.41;4982603;28;20458;-78
2022/09/08 06:34:19;;;;;;;;;;;;;;;11.09;63.98;99830.41;4967712;28;20259;-79
2022/09/08 06:36:54;;;;;;;;;;;;;;;10.98;64.36;99839.09;4983563;28;20477;-80
2022/09/08 06:39:27;;;;;;;;;;;;;;;10.98;64.89;99843.47;4985109;28;19965;-79
2022/09/08 06:41:57;;;;;;;;;;;;;;;11.18;65.05;99840.84;4981939;28;19961;-78
2022/09/08 06:44:29;;;;;;;;;;;;;;;11.39;63.51;99843.47;4977981;28;19926;-80
2022/09/08 06:46:56;;;;;;;;;;;;;;;11.71;62.81;99852.19;4973917;28;19945;-78
2022/09/08 06:49:27;;;;;;;;;;;;;;;11.91;61.93;99846.94;4980661;28;19925;-79
2022/09/08 06:52:00;;;;;;;;;;;;;;;12.20;61.94;99849.47;4974136;28;19937;-78
2022/09/08 06:54:45;;;;;;;;;;;;;;;12.36;61.40;99845.03;4985572;28;19973;-82
2022/09/08 06:57:39;;;;;;;;;;;;;;;12.34;61.03;99850.28;4983966;28;19933;-81
2022/09/08 07:00:29;;;;;;;;;;;;;;;12.16;60.16;99848.63;4967125;28;19926;-83
2022/09/08 07:03:00;;;;;;;;;;;;;;;12.11;60.81;99854.72;4978949;28;20301;-82
2022/09/08 07:05:31;;;;;;;;;;;;;;;12.02;60.71;99861.75;4966122;28;20436;-82
2022/09/08 07:08:16;;;;;;;;;;;;;;;11.96;61.21;99856.53;4981577;28;20412;-82
2022/09/08 07:10:46;;;;;;;;;;;;;;;12.01;60.84;99862.63;4993204;28;19933;-81
2022/09/08 07:13:16;;;;;;;;;;;;;;;12.52;60.71;99854.59;4975881;28;20327;-79
2022/09/08 07:15:52;;;;;;;;;;;;;;;13.47;59.23;99851.38;4991676;28;19930;-81
2022/09/08 07:18:32;;;;;;;;;;;;;;;14.23;57.16;99850.59;4989916;28;19926;-80
2022/09/08 07:21:18;;;;;;;;;;;;;;;14.22;56.93;99849.72;4973614;28;20341;-78
2022/09/08 07:23:46;;;;;;;;;;;;;;;13.47;58.03;99861.00;4976371;28;20358;-79
2022/09/08 07:26:22;;;;;;;;;;;;;;;12.81;59.39;99856.19;4984889;28;20401;-79
2022/09/08 07:28:51;;;;;;;;;;;;;;;12.46;59.74;99862.47;4983188;28;20464;-80
2022/09/08 07:31:24;;;;;;;;;;;;;;;12.38;60.28;99862.50;4981937;28;19930;-79
2022/09/08 07:34:02;;;;;;;;;;;;;;;12.43;60.36;99865.09;4966891;28;19925;-80
2022/09/08 07:36:33;;;;;;;;;;;;;;;12.36;60.70;99871.25;4961232;28;19936;-79
2022/09/08 07:39:19;;;;;;;;;;;;;;;12.38;60.48;99870.34;4976330;28;19926;-80
2022/09/08 07:41:54;;;;;;;;;;;;;;;12.21;60.26;99873.03;4984766;28;19934;-80
2022/09/08 07:44:21;;;;;;;;;;;;;;;12.16;59.85;99881.78;4994023;28;19925;-78
2022/09/08 07:46:54;;;;;;;;;;;;;;;12.26;59.52;99879.13;4994241;28;19930;-78
2022/09/08 07:49:39;;;;;;;;;;;;;;;12.46;59.42;99867.72;4990385;28;20024;-81
2022/09/08 07:52:23;;;;;;;;;;;;;;;12.81;58.90;99870.16;4969430;28;19927;-80
2022/09/08 07:54:52;;;;;;;;;;;;;;;12.97;58.16;99870.94;4986735;28;20041;-79
2022/09/08 07:57:19;;;;;;;;;;;;;;;12.89;57.84;99862.25;4985376;28;19961;-79
2022/09/08 08:00:09;;;;;;;;;;;;;;;12.87;58.08;99867.50;4981629;28;19933;-80
2022/09/08 08:02:49;;;;;;;;;;;;;;;12.92;58.29;99875.31;4985713;28;19933;-80
2022/09/08 08:05:24;;;;;;;;;;;;;;;12.70;58.65;99880.69;4985546;28;19932;-80
2022/09/08 08:08:23;;;;;;;;;;;;;;;12.31;59.61;99891.34;4977448;28;20024;-79
2022/09/08 08:11:06;;;;;;;;;;;;;;;12.26;60.36;99889.63;4951809;28;19926;-80
2022/09/08 08:13:53;;;;;;;;;;;;;;;12.44;60.09;99898.28;4987328;28;19926;-78
2022/09/08 08:16:28;;;;;;;;;;;;;;;11.99;60.89;99898.41;4981754;28;19925;-80
2022/09/08 08:19:08;;;;;;;;;;;;;;;11.40;62.11;99900.16;4986758;28;19929;-78
2022/09/08 08:21:40;;;;;;;;;;;;;;;11.15;63.55;99888.78;4986209;28;19925;-81
2022/09/08 08:24:13;;;;;;;;;;;;;;;11.11;63.62;99900.13;4989014;28;19960;-80
2022/09/08 08:26:49;;;;;;;;;;;;;;;11.28;63.35;99898.38;4960677;28;19930;-79
2022/09/08 08:29:28;;;;;;;;;;;;;;;11.29;63.19;99901.88;4985228;28;19926;-81
2022/09/08 08:32:16;;;;;;;;;;;;;;;11.14;63.14;99896.63;4986775;28;19930;-83
2022/09/08 08:35:03;;;;;;;;;;;;;;;11.14;63.66;99894.91;4988711;28;19961;-79
2022/09/08 08:37:31;;;;;;;;;;;;;;;11.18;63.85;99899.25;4984070;28;20025;-80
2022/09/08 08:39:59;;;;;;;;;;;;;;;11.32;63.44;99906.25;4965962;28;19972;-80
2022/09/08 08:42:29;;;;;;;;;;;;;;;11.54;62.87;99907.13;4983515;28;19930;-79
2022/09/08 08:45:05;;;;;;;;;;;;;;;11.81;62.31;99907.13;4984458;28;19925;-81
2022/09/08 08:47:58;;;;;;;;;;;;;;;12.02;61.45;99906.25;4983065;28;20383;-79
2022/09/08 08:50:28;;;;;;;;;;;;;;;12.13;60.93;99903.63;4985551;28;20028;-79
2022/09/08 08:53:01;;;;;;;;;;;;;;;12.28;61.19;99908.81;4984297;28;19949;-80
2022/09/08 08:55:37;;;;;;;;;;;;;;;12.41;60.71;99899.19;4968206;28;20370;-80
2022/09/08 08:58:04;;;;;;;;;;;;;;;12.47;59.80;99904.38;4987450;28;19930;-81
2022/09/08 09:00:51;;;;;;;;;;;;;;;12.43;59.52;99909.63;4981904;28;19926;-80
2022/09/08 09:03:37;;;;;;;;;;;;;;;12.37;59.34;99917.50;4986512;28;19929;-79
2022/09/08 09:06:04;;;;;;;;;;;;;;;12.32;59.62;99914.03;4987567;28;20020;-81
2022/09/08 09:08:50;;;;;;;;;;;;;;;12.54;59.48;99904.34;4983864;28;20003;-78
2022/09/08 09:11:35;;;;;;;;;;;;;;;12.73;59.11;99919.09;4985745;28;19961;-81
2022/09/08 09:14:29;;;;;;;;;;;;;;;12.85;57.49;99921.69;4986035;28;20034;-77
2022/09/08 09:17:34;;;;;;;;;;;;;;;13.24;57.13;99922.34;4985752;28;19926;-78
2022/09/08 09:20:07;;;;;;;;;;;;;;;13.71;55.68;99912.41;4986511;28;20404;-79
2022/09/08 09:22:34;;;;;;;;;;;;;;;14.07;55.16;99926.94;4968135;28;19946;-77
2022/09/08 09:25:11;;;;;;;;;;;;;;;13.85;54.55;99883.38;4983325;28;19992;-79
2022/09/08 09:27:38;;;;;;;;;;;;;;;13.96;55.13;99917.41;4983719;28;19980;-80
2022/09/08 09:30:23;;;;;;;;;;;;;;;13.67;55.10;99918.56;4987150;28;19972;-78
2022/09/08 09:33:00;;;;;;;;;;;;;;;13.33;55.31;99926.69;4965547;28;19929;-77
2022/09/08 09:35:30;;;;;;;;;;;;;;;12.93;55.20;99929.53;4968525;28;19933;-79
2022/09/08 09:37:57;;;;;;;;;;;;;;;12.89;55.81;99923.41;4983725;28;20386;-79
2022/09/08 09:40:25;;;;;;;;;;;;;;;12.84;55.33;99938.31;4978808;28;19953;-79
2022/09/08 09:43:19;;;;;;;;;;;;;;;12.74;55.41;99927.88;4986340;28;19926;-80
2022/09/08 09:46:01;;;;;;;;;;;;;;;12.89;55.36;99922.56;4989818;28;19992;-83
2022/09/08 09:48:56;;;;;;;;;;;;;;;13.46;54.39;99941.44;4997158;28;19932;-78
2022/09/08 09:51:32;;;;;;;;;;;;;;;13.48;53.62;99928.31;4989581;28;19932;-83
2022/09/08 09:54:18;;;;;;;;;;;;;;;13.34;54.26;99930.19;4984928;28;20417;-80
2022/09/08 09:57:04;;;;;;;;;;;;;;;13.20;54.67;99941.59;4982881;28;19926;-79
2022/09/08 09:59:54;;;;;;;;;;;;;;;12.70;55.45;99955.84;4985162;28;19925;-79
2022/09/08 10:02:54;;;;;;;;;;;;;;;12.32;56.57;99963.81;4972233;28;20330;-78
2022/09/08 10:05:41;;;;;;;;;;;;;;;11.93;57.20;99960.38;4941056;28;19926;-81
2022/09/08 10:08:27;;;;;;;;;;;;;;;12.06;57.39;99970.81;4968983;28;19925;-80
2022/09/08 10:11:13;;;;;;;;;;;;;;;12.33;56.62;99979.53;4982823;28;19958;-81
2022/09/08 10:13:56;;;;;;;;;;;;;;;12.54;56.42;99978.59;4968985;28;20305;-83
2022/09/08 10:16:31;;;;;;;;;;;;;;;12.73;56.07;99987.25;4986257;28;19941;-80
2022/09/08 10:19:21;;;;;;;;;;;;;;;12.66;56.06;99989.03;4985099;28;20275;-79
2022/09/08 10:22:05;;;;;;;;;;;;;;;12.73;56.14;99996.88;4992009;28;19926;-79
2022/09/08 10:24:50;;;;;;;;;;;;;;;12.67;56.03;99998.66;4993805;28;19930;-79
2022/09/08 10:27:37;;;;;;;;;;;;;;;12.61;56.25;99997.81;4991102;28;20506;-78
2022/09/08 10:30:13;;;;;;;;;;;;;;;12.60;56.26;100004.78;4986165;28;19926;-81
2022/09/08 10:32:50;;;;;;;;;;;;;;;12.78;56.35;100003.00;4983121;28;19929;-78
2022/09/08 10:35:19;;;;;;;;;;;;;;;13.18;55.62;99997.56;4982531;28;20158;-79
2022/09/08 10:38:00;;;;;;;;;;;;;;;13.22;55.17;100005.41;4983837;28;19926;-79
2022/09/08 10:40:39;;;;;;;;;;;;;;;13.27;55.64;99998.41;4974235;28;19926;-79
2022/09/08 10:43:22;;;;;;;;;;;;;;;13.41;54.99;100002.72;4984559;28;19973;-81
2022/09/08 10:46:08;;;;;;;;;;;;;;;13.65;54.92;99999.06;4973508;28;20436;-79
2022/09/08 10:48:40;;;;;;;;;;;;;;;13.81;54.32;99999.81;4985301;28;19925;-83
2022/09/08 10:51:17;;;;;;;;;;;;;;;13.88;54.37;99996.28;4984108;28;19933;-81
2022/09/08 10:53:44;;;;;;;;;;;;;;;13.79;54.45;100002.47;4981612;28;19961;-82
2022/09/08 10:56:15;;;;;;;;;;;;;;;13.41;54.87;100002.72;4983531;28;19926;-80
2022/09/08 10:58:45;;;;;;;;;;;;;;;13.05;55.81;100005.47;4984408;28;20451;-80
2022/09/08 11:01:30;;;;;;;;;;;;;;;12.77;56.57;100012.59;4981904;28;19933;-79
2022/09/08 11:04:00;;;;;;;;;;;;;;;12.77;56.88;100017.81;4965691;28;19926;-79
2022/09/08 11:06:27;;;;;;;;;;;;;;;12.75;56.63;100019.59;4984004;28;20318;-77
2022/09/08 11:09:09;;;;;;;;;;;;;;;12.80;56.53;100030.94;4982489;28;20383;-83
2022/09/08 11:11:36;;;;;;;;;;;;;;;12.84;56.29;100027.44;4963344;28;19932;-80
2022/09/08 11:14:16;;;;;;;;;;;;;;;12.97;55.89;100025.66;4976771;28;19968;-83
2022/09/08 11:16:49;;;;;;;;;;;;;;;13.24;55.52;100021.16;4984237;28;20346;-81
2022/09/08 11:19:32;;;;;;;;;;;;;;;13.15;55.03;100013.34;4985724;28;19926;-79
2022/09/08 11:22:02;;;;;;;;;;;;;;;12.92;55.83;100019.53;4986117;28;19926;-80
2022/09/08 11:24:34;;;;;;;;;;;;;;;12.76;56.02;100012.63;4983630;28;19997;-80
2022/09/08 11:27:27;;;;;;;;;;;;;;;12.78;55.72;100016.09;4986592;28;20300;-79
2022/09/08 11:30:03;;;;;;;;;;;;;;;12.69;55.52;100035.31;4954138;28;19926;-79
2022/09/08 11:32:34;;;;;;;;;;;;;;;12.88;54.90;100034.41;4984978;28;20405;-81
2022/09/08 11:35:20;;;;;;;;;;;;;;;13.04;54.46;100032.59;4988320;28;19945;-80
2022/09/08 11:37:48;;;;;;;;;;;;;;;13.18;53.09;100027.28;4987406;28;19972;-81
2022/09/08 11:40:19;;;;;;;;;;;;;;;13.49;52.33;100032.44;4983912;28;19925;-78
2022/09/08 11:43:10;;;;;;;;;;;;;;;13.73;51.87;100023.50;4993726;28;20358;-79
2022/09/08 11:45:52;;;;;;;;;;;;;;;14.01;50.65;100044.31;4987401;28;20342;-80
2022/09/08 11:48:31;;;;;;;;;;;;;;;13.91;50.17;100036.50;4987478;28;19926;-79
2022/09/08 11:50:58;;;;;;;;;;;;;;;13.86;49.76;100025.16;4987144;28;19932;-79
2022/09/08 11:53:45;;;;;;;;;;;;;;;13.41;50.44;100032.44;4987359;28;19929;-80
2022/09/08 11:56:38;;;;;;;;;;;;;;;13.31;51.44;100026.41;4986617;28;19926;-80
2022/09/08 11:59:26;;;;;;;;;;;;;;;13.28;51.57;100029.03;4983862;28;19936;-81
2022/09/08 12:02:18;;;;;;;;;;;;;;;13.27;51.43;100023.75;4987881;28;19973;-82
2022/09/08 12:05:18;;;;;;;;;;;;;;;13.34;51.71;100029.88;4986659;28;19926;-79
2022/09/08 12:11:25;;;;;;;;;;;;;;;12.96;52.59;100049.25;4969545;28;19980;-82
2022/09/08 12:14:10;;;;;;;;;;;;;;;12.69;52.98;100046.69;4988790;28;19972;-79
2022/09/08 12:17:16;;;;;;;;;;;;;;;12.54;53.30;100049.34;4992279;28;19993;-80
2022/09/08 12:20:03;;;;;;;;;;;;;;;12.60;53.44;100053.69;4973596;28;19930;-81
2022/09/08 12:22:46;;;;;;;;;;;;;;;12.59;53.25;100051.97;4986344;28;19932;-81
2022/09/08 12:25:16;;;;;;;;;;;;;;;12.49;53.42;100053.72;4985810;28;19973;-81
2022/09/08 12:28:03;;;;;;;;;;;;;;;12.49;53.45;100054.56;4982787;28;19932;-79
2022/09/08 12:30:30;;;;;;;;;;;;;;;12.61;53.41;100050.22;4984308;28;20394;-80
2022/09/08 12:33:15;;;;;;;;;;;;;;;12.67;53.04;100051.06;4984952;28;19926;-79
2022/09/08 12:36:00;;;;;;;;;;;;;;;12.81;52.96;100055.41;4991834;28;19933;-78
2022/09/08 12:38:45;;;;;;;;;;;;;;;13.13;52.15;100063.16;4995966;28;19936;-77
2022/09/08 12:41:19;;;;;;;;;;;;;;;13.13;51.63;100052.66;4978757;28;19925;-79
2022/09/08 12:43:46;;;;;;;;;;;;;;;13.04;51.72;100057.97;4995943;28;19932;-78
2022/09/08 12:46:40;;;;;;;;;;;;;;;13.05;51.77;100060.56;4976863;28;19925;-77
2022/09/08 12:49:26;;;;;;;;;;;;;;;13.01;52.30;100057.94;4959229;28;20306;-78
2022/09/08 12:51:58;;;;;;;;;;;;;;;13.03;52.28;100069.31;4976239;28;19933;-77
2022/09/08 12:54:25;;;;;;;;;;;;;;;12.87;52.83;100066.75;4976810;28;19933;-79
2022/09/08 12:56:52;;;;;;;;;;;;;;;12.62;53.43;100067.66;4984672;28;19929;-80
2022/09/08 12:59:34;;;;;;;;;;;;;;;12.31;54.10;100069.47;4985361;28;20061;-80
2022/09/08 13:02:20;;;;;;;;;;;;;;;12.13;54.68;100079.06;4973376;28;19929;-79
2022/09/08 13:05:06;;;;;;;;;;;;;;;12.01;54.90;100060.72;4984138;28;19976;-77
2022/09/08 13:07:33;;;;;;;;;;;;;;;12.10;54.81;100081.66;4985093;28;20013;-80
2022/09/08 13:10:08;;;;;;;;;;;;;;;12.11;55.15;100079.91;4986195;28;20007;-85
2022/09/08 13:12:54;;;;;;;;;;;;;;;12.18;55.04;100092.16;4983598;28;19929;-82
2022/09/08 13:15:32;;;;;;;;;;;;;;;12.19;54.92;100093.88;4967973;28;19937;-83
2022/09/08 13:18:08;;;;;;;;;;;;;;;12.24;54.97;100087.78;4985547;28;19925;-79
2022/09/08 13:20:38;;;;;;;;;;;;;;;12.30;54.78;100100.00;4985437;28;19988;-80
2022/09/08 13:23:23;;;;;;;;;;;;;;;12.28;54.81;100100.03;4988989;28;19996;-79
2022/09/08 13:26:02;;;;;;;;;;;;;;;12.25;53.80;100099.13;4995238;28;19968;-80
2022/09/08 13:28:40;;;;;;;;;;;;;;;12.25;53.72;100107.84;4995368;28;19989;-78